Airfield :
LOGIN :

Register | Disclaimer

   EN    FR    IT 

 










Legend :    VFR   Marginal VFR   IFR   Intensive IFR   Very Intensive IFR
Visi :
Ceiling :
>= 8 km
>= 3000ft
5 to 8 km
1000 to 3000 ft
1500m to 5 km
500 to 1000 ft
800 to 1500m
200 to 500 ft
< 800m
< 200 ft
Symbols :   Thunderstorms  Fog  Heavy snow  Heavy precipitations  Wind > 20 kt
SIGMETs :     Misc.  Thunderstorms  Icing  Turbulence  Mountain Waves  Volcanic Ashes






- Airport Elevation : 1306 ft
- IATA code : ACH


LSZR - Alten Rhein

CURRENT METAR :
  • 070650Z 28003KT 220V360 9999 FEW050 18/10 Q1023 NOSIG RMK C

EXPIRED METARs :
  • 070620Z 32006KT 9999 FEW050 17/09 Q1023 NOSIG RMK C
  • 070550Z 28005KT 9999 FEW065 17/11 Q1023 NOSIG RMK B
  • 070520Z VRB02KT CAVOK 17/11 Q1023 NOSIG RMK B
  • 070450Z VRB01KT CAVOK 16/10 Q1023 NOSIG RMK A
  • 070420Z VRB02KT CAVOK 14/11 Q1023 NOSIG RMK A

TAF TAF LSZR
Valid from the 07 at 06:00 until the 07 at 15:00 UTC


070525Z 0706/0715 29004KT CAVOK
BECMG 0710/0713 9999 SCT050
PROB30
TEMPO 0712/0715 29015KT SHRA
ATIS : +41 71 858 51 66



MET'MAP, your aeronautical weather chart ! - Copyright ORBIFLY December 2007 - Disclaimer

ORBIFLY MET'MAP TEAM :

Programming & Development : Alexandra Zaïnal
Original concept : Baudouin d'Aumeries
Technical & hardware support : Manuel Goepfert
Assistance : Marc-Olivier Méhu




SOURCES & CREDITS :

   NOAA